Time;durP1;ratioP1;P1;durP2;ratioP2;P2;SDS_P1;SDS_P2;PMS_P1;PMS_P2;Temp;Humidity;BMP_temperature;BMP_pressure;BME280_temperature;BME280_humidity;BME280_pressure;Samples;Min_cycle;Max_cycle;Signal;HPM_P1;HPM_P2
2022/11/26 00:01:01;;;;;;;0.00;0.00;;;;;;;7.22;100.00;99694.94;4939981;28;20250;-63
2022/11/26 00:03:32;;;;;;;0.00;0.00;;;;;;;7.23;100.00;99696.59;4925600;28;22423;-63
2022/11/26 00:05:58;;;;;;;0.00;0.00;;;;;;;7.27;100.00;99699.00;4928565;28;20993;-63
2022/11/26 00:08:30;;;;;;;0.00;0.00;;;;;;;7.28;100.00;99698.06;4926091;28;20220;-63
2022/11/26 00:10:57;;;;;;;0.00;0.00;;;;;;;7.29;100.00;99704.91;4929045;28;20238;-63
2022/11/26 00:13:26;;;;;;;0.00;0.00;;;;;;;7.28;100.00;99698.06;4923875;28;20225;-63
2022/11/26 00:15:53;;;;;;;0.00;0.00;;;;;;;7.32;100.00;99707.31;4928375;28;20239;-63
2022/11/26 00:18:22;;;;;;;0.00;0.00;;;;;;;7.32;100.00;99702.09;4925748;28;20229;-63
2022/11/26 00:20:54;;;;;;;0.00;0.00;;;;;;;7.36;100.00;99708.75;4927966;28;20253;-63
2022/11/26 00:23:23;;;;;;;0.00;0.00;;;;;;;7.37;100.00;99716.44;4925245;28;20235;-63
2022/11/26 00:25:54;;;;;;;0.00;0.00;;;;;;;7.43;100.00;99719.56;4928411;28;20235;-63
2022/11/26 00:28:30;;;;;;;0.00;0.00;;;;;;;7.48;100.00;99725.28;4925952;28;20620;-63
2022/11/26 00:30:59;;;;;;;0.00;0.00;;;;;;;7.49;100.00;99738.13;4928330;28;20238;-65
2022/11/26 00:33:27;;;;;;;0.00;0.00;;;;;;;7.47;100.00;99737.41;4925376;28;20227;-63
2022/11/26 00:35:57;;;;;;;0.00;0.00;;;;;;;7.51;100.00;99744.06;4929093;28;20239;-63
2022/11/26 00:38:25;;;;;;;0.00;0.00;;;;;;;7.53;100.00;99741.38;4926371;28;20771;-63
2022/11/26 00:40:51;;;;;;;0.00;0.00;;;;;;;7.54;100.00;99743.84;4928522;28;20236;-63
2022/11/26 00:43:18;;;;;;;0.00;0.00;;;;;;;7.57;100.00;99748.03;4925657;28;20242;-63
2022/11/26 00:45:46;;;;;;;0.00;0.00;;;;;;;7.58;100.00;99751.44;4929043;28;20318;-63
2022/11/26 00:48:14;;;;;;;0.00;0.00;;;;;;;7.57;100.00;99749.78;4927077;28;20631;-63
2022/11/26 00:50:43;;;;;;;0.00;0.00;;;;;;;7.58;100.00;99754.91;4928644;28;20246;-63
2022/11/26 00:53:13;;;;;;;0.00;0.00;;;;;;;7.59;100.00;99753.97;4917805;28;20276;-63
2022/11/26 00:55:43;;;;;;;0.00;0.00;;;;;;;7.62;100.00;99760.69;4912748;28;20239;-63
2022/11/26 00:58:20;;;;;;;0.00;0.00;;;;;;;7.60;100.00;99768.63;4925746;28;20622;-63
2022/11/26 01:00:47;;;;;;;0.00;0.00;;;;;;;7.63;100.00;99785.75;4928525;28;20240;-63
2022/11/26 01:03:13;;;;;;;0.00;0.00;;;;;;;7.62;100.00;99779.75;4925330;28;20307;-63
2022/11/26 01:05:40;;;;;;;0.00;0.00;;;;;;;7.61;100.00;99782.44;4928647;28;20239;-63
2022/11/26 01:08:19;;;;;;;0.00;0.00;;;;;;;7.61;100.00;99780.69;4928632;28;20889;-63
2022/11/26 01:10:46;;;;;;;0.00;0.00;;;;;;;7.60;100.00;99780.75;4925584;28;20234;-63
2022/11/26 01:13:12;;;;;;;0.00;0.00;;;;;;;7.63;100.00;99789.19;4925353;28;20303;-63
2022/11/26 01:15:40;;;;;;;0.10;0.10;;;;;;;7.60;100.00;99788.56;4932120;28;20616;-63
2022/11/26 01:18:12;;;;;;;0.00;0.00;;;;;;;7.60;100.00;99786.81;4924146;28;20236;-63
2022/11/26 01:20:39;;;;;;;0.10;0.10;;;;;;;7.61;100.00;99791.06;4937188;28;20237;-63
2022/11/26 01:23:06;;;;;;;0.00;0.00;;;;;;;7.62;100.00;99794.47;4925675;28;20270;-63
2022/11/26 01:25:35;;;;;;;0.00;0.00;;;;;;;7.63;100.00;99794.41;4920171;28;20653;-63
2022/11/26 01:28:01;;;;;;;0.00;0.00;;;;;;;7.64;100.00;99800.41;4928420;28;20639;-63
2022/11/26 01:30:32;;;;;;;0.00;0.00;;;;;;;7.64;100.00;99805.59;4925177;28;20330;-63
2022/11/26 01:32:59;;;;;;;0.00;0.00;;;;;;;7.65;100.00;99799.47;4927590;28;20240;-63
2022/11/26 01:35:27;;;;;;;0.00;0.00;;;;;;;7.62;100.00;99816.13;4921136;28;20235;-64
2022/11/26 01:37:54;;;;;;;0.00;0.00;;;;;;;7.64;100.00;99810.81;4909199;29;20235;-63
2022/11/26 01:40:35;;;;;;;0.00;0.00;;;;;;;7.60;100.00;99812.78;4914208;28;20226;-63
2022/11/26 01:43:11;;;;;;;0.00;0.00;;;;;;;7.61;100.00;99818.81;4919745;28;20243;-65
2022/11/26 01:45:37;;;;;;;0.00;0.00;;;;;;;7.59;100.00;99821.53;4924407;29;20230;-63
2022/11/26 01:48:22;;;;;;;0.00;0.00;;;;;;;7.58;100.00;99832.84;4912908;28;20231;-61
2022/11/26 01:51:03;;;;;;;0.00;0.00;;;;;;;7.55;100.00;99833.03;4918995;28;20239;-64
2022/11/26 01:53:35;;;;;;;0.00;0.00;;;;;;;7.54;100.00;99842.59;4923895;28;20231;-63
2022/11/26 01:56:05;;;;;;;0.00;0.00;;;;;;;7.53;100.00;99847.91;4927920;28;20295;-63
2022/11/26 01:58:37;;;;;;;0.00;0.00;;;;;;;7.42;100.00;99842.56;4925544;28;20229;-63
2022/11/26 02:01:04;;;;;;;0.00;0.00;;;;;;;7.42;100.00;99842.56;4939339;28;20244;-63
2022/11/26 02:03:40;;;;;;;0.00;0.00;;;;;;;7.35;100.00;99850.78;4924801;28;20387;-63
2022/11/26 02:06:14;;;;;;;0.00;0.00;;;;;;;7.37;100.00;99851.50;4927798;28;20241;-63
2022/11/26 02:08:41;;;;;;;0.00;0.00;;;;;;;7.30;100.00;99855.44;4923255;29;20704;-63
2022/11/26 02:11:16;;;;;;;0.00;0.00;;;;;;;7.29;100.00;99855.53;4927815;28;20239;-63
2022/11/26 02:13:46;;;;;;;0.00;0.00;;;;;;;7.24;100.00;99858.41;4917790;28;20239;-63
2022/11/26 02:16:23;;;;;;;0.00;0.00;;;;;;;7.22;100.00;99863.72;4925378;28;20238;-63
2022/11/26 02:19:01;;;;;;;0.00;0.00;;;;;;;7.21;100.00;99869.00;4927822;28;20286;-63
2022/11/26 02:21:28;;;;;;;0.10;0.10;;;;;;;7.15;100.00;99867.66;4925011;28;21782;-63
2022/11/26 02:24:31;;;;;;;0.00;0.00;;;;;;;7.04;100.00;99876.09;4925308;29;20239;-63
2022/11/26 02:27:33;;;;;;;0.00;0.00;;;;;;;7.10;100.00;99874.91;4924813;28;20287;-63
2022/11/26 02:30:05;;;;;;;0.00;0.00;;;;;;;7.08;100.00;99887.16;4924052;28;20608;-63
2022/11/26 02:32:42;;;;;;;0.00;0.00;;;;;;;7.07;100.00;99886.28;4923418;28;20601;-64
2022/11/26 02:35:15;;;;;;;0.00;0.00;;;;;;;7.08;100.00;99881.94;4925739;28;20321;-64
2022/11/26 02:37:47;;;;;;;0.00;0.00;;;;;;;7.04;100.00;99886.50;4926664;28;20700;-63
2022/11/26 02:40:14;;;;;;;0.00;0.00;;;;;;;7.07;100.00;99882.88;4923462;28;20236;-63
2022/11/26 02:42:41;;;;;;;0.00;0.00;;;;;;;7.07;100.00;99886.28;4927457;28;20231;-63
2022/11/26 02:45:11;;;;;;;0.00;0.00;;;;;;;7.10;100.00;99893.06;4924675;28;20223;-63
2022/11/26 02:47:41;;;;;;;0.00;0.00;;;;;;;7.05;100.00;99895.94;4921377;28;20232;-63
2022/11/26 02:50:12;;;;;;;0.00;0.00;;;;;;;7.06;100.00;99896.78;4916172;28;20232;-63
2022/11/26 02:52:41;;;;;;;0.00;0.00;;;;;;;7.06;100.00;99892.41;4925050;28;20810;-61
2022/11/26 02:55:11;;;;;;;0.10;0.10;;;;;;;7.04;100.00;99893.47;4927929;28;20227;-63
2022/11/26 02:57:45;;;;;;;0.00;0.00;;;;;;;7.09;100.00;99896.59;4928505;28;20230;-63
2022/11/26 03:00:14;;;;;;;0.00;0.00;;;;;;;7.08;100.00;99897.53;4927900;28;20234;-63
2022/11/26 03:02:45;;;;;;;0.00;0.00;;;;;;;7.08;100.00;99900.13;4923691;28;20227;-63
2022/11/26 03:05:15;;;;;;;0.00;0.00;;;;;;;7.03;100.00;99900.41;4928032;28;20233;-61
2022/11/26 03:07:44;;;;;;;0.00;0.00;;;;;;;7.01;100.00;99906.63;4945294;28;20236;-63
2022/11/26 03:10:10;;;;;;;0.00;0.00;;;;;;;7.00;100.00;99912.75;4921576;28;20299;-63
2022/11/26 03:12:37;;;;;;;0.00;0.00;;;;;;;6.99;100.00;99918.88;4930770;28;20255;-63
2022/11/26 03:15:04;;;;;;;0.00;0.00;;;;;;;7.02;100.00;99914.31;4922371;28;20236;-63
2022/11/26 03:17:32;;;;;;;0.00;0.00;;;;;;;6.96;100.00;99916.47;4927553;28;20237;-61
2022/11/26 03:19:58;;;;;;;0.00;0.00;;;;;;;6.93;100.00;99913.13;4930406;28;20235;-63
2022/11/26 03:22:25;;;;;;;0.00;0.00;;;;;;;6.96;100.00;99914.69;4923282;28;20232;-61
2022/11/26 03:24:51;;;;;;;0.00;0.00;;;;;;;6.97;100.00;99913.75;4928952;28;20399;-61
2022/11/26 03:27:18;;;;;;;0.00;0.00;;;;;;;6.99;100.00;99908.50;4918485;28;20232;-63
2022/11/26 03:29:44;;;;;;;0.00;0.00;;;;;;;6.96;100.00;99906.09;4924251;28;20303;-64
2022/11/26 03:32:11;;;;;;;0.10;0.10;;;;;;;6.98;100.00;99901.63;4918223;28;20248;-63
2022/11/26 03:34:39;;;;;;;0.00;0.00;;;;;;;6.97;100.00;99905.16;4922929;28;20235;-64
2022/11/26 03:37:05;;;;;;;0.00;0.00;;;;;;;7.00;100.00;99908.38;4929916;28;20267;-63
2022/11/26 03:39:32;;;;;;;0.10;0.10;;;;;;;7.01;100.00;99896.25;4927822;28;20243;-63
2022/11/26 03:41:59;;;;;;;0.00;0.00;;;;;;;6.98;100.00;99902.44;4929054;28;20238;-63
2022/11/26 03:44:25;;;;;;;0.00;0.00;;;;;;;6.90;100.00;99902.94;4926796;28;20235;-64
2022/11/26 03:46:52;;;;;;;0.00;0.00;;;;;;;6.81;100.00;99897.50;4930215;28;20239;-63
2022/11/26 03:49:18;;;;;;;0.10;0.10;;;;;;;6.70;100.00;99904.19;4927212;28;20239;-63
2022/11/26 03:51:46;;;;;;;0.00;0.00;;;;;;;6.60;100.00;99908.28;4929284;28;20240;-61
2022/11/26 03:54:13;;;;;;;0.00;0.00;;;;;;;6.46;100.00;99903.91;4926075;28;20632;-63
2022/11/26 03:56:39;;;;;;;0.00;0.00;;;;;;;6.32;100.00;99899.56;4922658;28;20636;-63
2022/11/26 03:59:06;;;;;;;0.03;0.03;;;;;;;6.15;100.00;99897.97;4929576;28;20726;-63
2022/11/26 04:01:33;;;;;;;0.00;0.00;;;;;;;5.96;100.00;99895.59;4927000;28;20320;-63
2022/11/26 04:03:59;;;;;;;0.00;0.00;;;;;;;5.82;100.00;99891.22;4921144;28;20286;-63
2022/11/26 04:06:26;;;;;;;0.10;0.10;;;;;;;5.60;100.00;99889.84;4940265;28;20223;-63
2022/11/26 04:08:54;;;;;;;0.00;0.00;;;;;;;5.47;100.00;99885.38;4929374;28;20238;-63
2022/11/26 04:11:20;;;;;;;0.00;0.00;;;;;;;5.33;100.00;99882.72;4926484;28;20239;-63
2022/11/26 04:13:47;;;;;;;0.00;0.00;;;;;;;5.27;100.00;99883.09;4929309;28;20239;-63
2022/11/26 04:16:13;;;;;;;0.00;0.00;;;;;;;5.16;100.00;99873.31;4926515;28;20648;-63
2022/11/26 04:18:40;;;;;;;0.00;0.00;;;;;;;5.11;100.00;99881.34;4916963;28;20242;-63
2022/11/26 04:21:07;;;;;;;0.00;0.00;;;;;;;5.06;100.00;99873.00;4925572;28;20227;-63
2022/11/26 04:23:35;;;;;;;0.10;0.10;;;;;;;4.99;100.00;99880.25;4926714;28;20238;-63
2022/11/26 04:26:03;;;;;;;0.10;0.10;;;;;;;4.87;100.00;99881.78;4929338;28;20235;-63
2022/11/26 04:28:29;;;;;;;0.10;0.10;;;;;;;4.82;100.00;99896.72;4926295;28;20727;-63
2022/11/26 04:33:50;;;;;;;0.00;0.00;;;;;;;4.74;100.00;99898.88;4941902;28;20241;-63
2022/11/26 04:36:17;;;;;;;0.00;0.00;;;;;;;4.63;100.00;99896.00;4944773;28;20832;-63
2022/11/26 04:38:43;;;;;;;0.00;0.00;;;;;;;4.53;100.00;99903.44;4947961;28;20718;-63
2022/11/26 04:41:11;;;;;;;0.00;0.00;;;;;;;4.40;100.00;99905.81;4942159;28;20240;-63
2022/11/26 04:43:38;;;;;;;0.00;0.00;;;;;;;4.28;100.00;99896.94;4930173;28;20238;-63
2022/11/26 04:46:05;;;;;;;0.00;0.00;;;;;;;4.23;100.00;99899.78;4966245;23;20365;-54
2022/11/26 04:48:31;;;;;;;0.00;0.00;;;;;;;4.09;100.00;99899.66;4963520;28;20618;-56
2022/11/26 04:50:58;;;;;;;0.00;0.00;;;;;;;4.01;100.00;99909.53;4963516;28;20245;-55
2022/11/26 04:53:27;;;;;;;0.00;0.00;;;;;;;3.94;100.00;99912.41;4950298;28;20229;-54
2022/11/26 04:55:54;;;;;;;0.00;0.00;;;;;;;3.87;100.00;99910.19;4952607;28;20596;-56
2022/11/26 04:58:22;;;;;;;0.10;0.10;;;;;;;3.79;100.00;99916.59;4947561;28;20256;-55
2022/11/26 05:00:49;;;;;;;0.00;0.00;;;;;;;3.76;100.00;99928.81;4952486;28;20274;-57
2022/11/26 05:03:15;;;;;;;0.00;0.00;;;;;;;3.69;100.00;99926.53;4952385;28;20338;-54
2022/11/26 05:05:42;;;;;;;0.00;0.00;;;;;;;3.62;100.00;99927.75;4957492;28;20237;-55
2022/11/26 05:08:08;;;;;;;0.00;0.00;;;;;;;3.53;100.00;99923.03;4952649;28;20241;-56
2022/11/26 05:10:35;;;;;;;0.00;0.00;;;;;;;3.50;100.00;99921.44;4953392;28;20239;-55
2022/11/26 05:13:02;;;;;;;0.00;0.00;;;;;;;3.43;100.00;99924.38;4950627;28;20719;-54
2022/11/26 05:15:29;;;;;;;0.00;0.00;;;;;;;3.40;100.00;99927.94;4949552;28;20728;-55
2022/11/26 05:17:56;;;;;;;0.00;0.00;;;;;;;3.37;100.00;99933.25;4954331;28;20819;-54
2022/11/26 05:20:24;;;;;;;0.00;0.00;;;;;;;3.40;100.00;99943.44;4950429;28;20567;-55
2022/11/26 05:22:51;;;;;;;0.00;0.00;;;;;;;3.33;100.00;99942.88;4951521;28;20921;-56
2022/11/26 05:25:17;;;;;;;0.00;0.00;;;;;;;3.29;100.00;99953.41;4946487;28;20242;-56
2022/11/26 05:27:44;;;;;;;0.00;0.00;;;;;;;3.32;100.00;99958.44;4955489;28;20226;-55
2022/11/26 05:30:12;;;;;;;0.00;0.00;;;;;;;3.29;100.00;99958.59;4950375;28;20367;-54
2022/11/26 05:32:40;;;;;;;0.00;0.00;;;;;;;3.31;100.00;99959.34;4954657;28;20234;-56
2022/11/26 05:35:07;;;;;;;0.00;0.00;;;;;;;3.35;100.00;99966.03;4954474;28;20242;-56
2022/11/26 05:37:34;;;;;;;0.00;0.00;;;;;;;3.44;100.00;99967.34;4952379;28;20261;-55
2022/11/26 05:40:00;;;;;;;0.00;0.00;;;;;;;3.54;100.00;99976.34;4956789;28;20230;-56
2022/11/26 05:42:27;;;;;;;0.00;0.00;;;;;;;3.68;100.00;99971.34;4953871;28;20331;-55
2022/11/26 05:44:53;;;;;;;0.00;0.00;;;;;;;3.81;100.00;99973.34;4952002;28;20234;-56
2022/11/26 05:47:20;;;;;;;0.00;0.00;;;;;;;3.91;100.00;99971.13;4954017;28;20902;-57
2022/11/26 05:49:48;;;;;;;0.10;0.10;;;;;;;3.96;100.00;99980.34;4956410;28;20579;-57
2022/11/26 05:52:14;;;;;;;0.00;0.00;;;;;;;4.08;100.00;99983.25;4950491;28;20234;-55
2022/11/26 05:54:41;;;;;;;0.00;0.00;;;;;;;4.13;100.00;99992.44;4955399;28;20241;-54
2022/11/26 05:57:09;;;;;;;0.00;0.00;;;;;;;4.21;100.00;99997.25;4951370;28;20785;-56
2022/11/26 05:59:36;;;;;;;0.00;0.00;;;;;;;4.30;100.00;99995.94;4945442;28;20320;-54
2022/11/26 06:02:02;;;;;;;0.00;0.00;;;;;;;4.37;100.00;100009.38;4952618;28;20722;-55
2022/11/26 06:04:29;;;;;;;0.10;0.10;;;;;;;4.38;100.00;100003.28;4952287;28;20289;-55
2022/11/26 06:06:57;;;;;;;0.10;0.10;;;;;;;4.44;100.00;100013.31;4952423;28;20222;-55
2022/11/26 06:09:23;;;;;;;0.00;0.00;;;;;;;4.48;100.00;100012.25;4949231;28;20230;-56
2022/11/26 06:11:53;;;;;;;0.10;0.10;;;;;;;4.60;100.00;100020.31;4950897;28;20634;-56
2022/11/26 06:14:20;;;;;;;0.10;0.10;;;;;;;4.61;100.00;100027.16;4952250;28;20241;-56
2022/11/26 06:16:46;;;;;;;0.00;0.00;;;;;;;4.62;100.00;100027.09;4954709;28;20726;-56
2022/11/26 06:19:13;;;;;;;0.00;0.00;;;;;;;4.66;100.00;100031.19;4951006;28;20241;-54
2022/11/26 06:21:39;;;;;;;0.00;0.00;;;;;;;4.74;100.00;100038.56;4950690;28;20298;-56
2022/11/26 06:24:07;;;;;;;0.10;0.10;;;;;;;4.79;100.00;100036.56;4953269;28;20241;-56
2022/11/26 06:26:34;;;;;;;0.00;0.00;;;;;;;4.84;100.00;100037.16;4948173;28;20237;-55
2022/11/26 06:29:01;;;;;;;0.00;0.00;;;;;;;4.93;100.00;100046.19;4955380;28;20234;-54
2022/11/26 06:31:27;;;;;;;0.10;0.10;;;;;;;4.98;100.00;100040.78;4956372;28;20242;-55
2022/11/26 06:33:54;;;;;;;0.00;0.00;;;;;;;5.06;100.00;100042.97;4955597;28;20245;-56
2022/11/26 06:36:22;;;;;;;0.10;0.10;;;;;;;5.09;100.00;100046.25;4953471;28;20314;-56
2022/11/26 06:38:49;;;;;;;0.00;0.00;;;;;;;5.12;100.00;100042.66;4954831;28;20259;-56
2022/11/26 06:41:17;;;;;;;0.00;0.00;;;;;;;5.19;100.00;100049.19;4954706;28;20230;-55
2022/11/26 06:43:43;;;;;;;0.00;0.00;;;;;;;5.23;100.00;100047.28;4953569;28;20238;-56
2022/11/26 06:46:10;;;;;;;0.00;0.00;;;;;;;5.26;100.00;100053.13;4951001;28;20226;-56
2022/11/26 06:48:39;;;;;;;0.00;0.00;;;;;;;5.28;100.00;100053.06;4957953;28;20254;-56
2022/11/26 06:51:07;;;;;;;0.00;0.00;;;;;;;5.32;100.00;100051.94;4951159;28;20564;-55
2022/11/26 06:53:34;;;;;;;0.00;0.00;;;;;;;5.36;100.00;100058.63;4952584;28;20230;-55
2022/11/26 06:56:01;;;;;;;0.00;0.00;;;;;;;5.38;100.00;100061.16;4954815;28;20615;-56
2022/11/26 06:58:29;;;;;;;0.00;0.00;;;;;;;5.41;100.00;100068.75;4951542;28;20288;-55
2022/11/26 07:00:56;;;;;;;0.00;0.00;;;;;;;5.44;100.00;100064.22;4955447;28;20327;-54
2022/11/26 07:03:24;;;;;;;0.00;0.00;;;;;;;5.46;100.00;100067.56;4953971;28;20236;-54
2022/11/26 07:05:51;;;;;;;0.00;0.00;;;;;;;5.51;100.00;100067.34;4956840;28;20234;-54
2022/11/26 07:08:18;;;;;;;0.00;0.00;;;;;;;5.59;100.00;100074.69;4955943;28;20618;-56
2022/11/26 07:10:44;;;;;;;0.00;0.00;;;;;;;5.64;100.00;100066.69;4950958;28;20240;-55
2022/11/26 07:13:11;;;;;;;0.00;0.00;;;;;;;5.65;100.00;100068.34;4957850;28;20221;-55
2022/11/26 07:15:39;;;;;;;0.03;0.03;;;;;;;5.71;100.00;100065.44;4956568;28;20626;-57
2022/11/26 07:18:05;;;;;;;0.00;0.00;;;;;;;5.76;100.00;100081.56;4959885;28;20320;-54
2022/11/26 07:20:32;;;;;;;0.00;0.00;;;;;;;5.79;100.00;100077.94;4953164;28;20307;-55
2022/11/26 07:23:01;;;;;;;0.00;0.00;;;;;;;5.81;100.00;100076.97;4955350;28;20243;-56
2022/11/26 07:25:28;;;;;;;0.00;0.00;;;;;;;5.81;100.00;100087.34;4955443;28;20249;-55
2022/11/26 07:27:54;;;;;;;0.00;0.00;;;;;;;5.87;100.00;100083.56;4955599;28;20222;-55
2022/11/26 07:30:21;;;;;;;0.00;0.00;;;;;;;5.90;100.00;100081.63;4951242;28;20223;-56
2022/11/26 07:32:49;;;;;;;0.00;0.00;;;;;;;5.89;100.00;100086.91;4955468;28;20241;-56
2022/11/26 07:35:18;;;;;;;0.10;0.10;;;;;;;5.94;100.00;100091.81;4953384;28;20241;-54
2022/11/26 07:37:45;;;;;;;0.00;0.00;;;;;;;5.99;100.00;100087.22;4957912;28;20247;-55
2022/11/26 07:40:13;;;;;;;0.10;0.10;;;;;;;6.04;100.00;100091.25;4951296;28;20595;-56
2022/11/26 07:42:39;;;;;;;0.00;0.00;;;;;;;6.07;100.00;100084.25;4957148;28;20618;-56
2022/11/26 07:45:07;;;;;;;0.00;0.00;;;;;;;6.14;100.00;100083.78;4958758;28;20240;-56
2022/11/26 07:47:33;;;;;;;0.00;0.00;;;;;;;6.17;100.00;100090.59;4952970;28;20226;-56
2022/11/26 07:50:01;;;;;;;0.00;0.00;;;;;;;6.24;100.00;100086.72;4955643;28;20229;-56
2022/11/26 07:52:28;;;;;;;0.00;0.00;;;;;;;6.27;100.00;100093.47;4953908;28;20237;-56
2022/11/26 07:54:55;;;;;;;0.00;0.00;;;;;;;6.38;100.00;100088.53;4957305;28;20252;-55
2022/11/26 07:57:21;;;;;;;0.03;0.03;;;;;;;6.41;100.00;100098.72;4952861;28;20249;-56
2022/11/26 07:59:48;;;;;;;0.00;0.00;;;;;;;6.42;100.00;100092.63;4958350;28;20646;-55
2022/11/26 08:02:17;;;;;;;0.00;0.00;;;;;;;6.42;100.00;100096.94;4951836;28;20788;-53
2022/11/26 08:04:44;;;;;;;0.00;0.00;;;;;;;6.46;100.00;100103.63;4954791;28;20230;-55
2022/11/26 08:07:12;;;;;;;0.00;0.00;;;;;;;6.49;100.00;100111.25;4952837;28;20548;-54
2022/11/26 08:09:38;;;;;;;0.00;0.00;;;;;;;6.52;100.00;100111.06;4952432;28;20298;-55
2022/11/26 08:12:05;;;;;;;0.00;0.00;;;;;;;6.53;100.00;100120.53;4955173;28;20238;-53
2022/11/26 08:14:32;;;;;;;0.00;0.00;;;;;;;6.58;100.00;100123.69;4952903;28;20233;-55
2022/11/26 08:16:59;;;;;;;0.00;0.00;;;;;;;6.59;100.00;100130.53;4956911;28;20249;-55
2022/11/26 08:19:25;;;;;;;0.00;0.00;;;;;;;6.63;100.00;100121.66;4954035;28;20268;-53
2022/11/26 08:21:52;;;;;;;0.00;0.00;;;;;;;6.65;100.00;100124.19;4959529;28;20250;-54
2022/11/26 08:24:22;;;;;;;0.00;0.00;;;;;;;6.71;100.00;100122.97;4951874;28;20250;-54
2022/11/26 08:26:49;;;;;;;0.00;0.00;;;;;;;6.74;100.00;100128.00;4954505;28;20239;-55
2022/11/26 08:29:15;;;;;;;0.00;0.00;;;;;;;6.85;100.00;100132.59;4948399;28;20234;-53
2022/11/26 08:31:42;;;;;;;0.00;0.00;;;;;;;6.82;100.00;100133.56;4957607;28;20241;-55
2022/11/26 08:34:11;;;;;;;0.00;0.00;;;;;;;6.85;100.00;100133.41;4950193;28;20711;-54
2022/11/26 08:36:38;;;;;;;0.00;0.00;;;;;;;6.82;100.00;100137.94;4954605;28;20281;-54
2022/11/26 08:39:04;;;;;;;0.00;0.00;;;;;;;6.86;100.00;100142.84;4956461;28;20226;-54
2022/11/26 08:41:32;;;;;;;0.00;0.00;;;;;;;6.88;100.00;100135.81;4966481;28;20242;-54
2022/11/26 08:44:02;;;;;;;0.00;0.00;;;;;;;6.85;100.00;100141.19;4970759;28;20271;-53
2022/11/26 08:46:29;;;;;;;0.00;0.00;;;;;;;6.95;100.00;100144.06;4929535;28;20223;-53
2022/11/26 08:48:56;;;;;;;0.00;0.00;;;;;;;6.93;100.00;100138.97;4951445;28;20820;-53
2022/11/26 08:51:23;;;;;;;0.00;0.00;;;;;;;6.96;100.00;100134.53;4954631;28;20228;-55
2022/11/26 08:53:53;;;;;;;0.00;0.00;;;;;;;7.09;100.00;100135.47;4956175;28;20695;-55
2022/11/26 08:56:19;;;;;;;0.00;0.00;;;;;;;7.22;100.00;100135.56;4952105;28;20703;-53
2022/11/26 08:58:47;;;;;;;0.00;0.00;;;;;;;7.17;100.00;100145.41;4953713;28;20237;-53
2022/11/26 09:01:16;;;;;;;0.00;0.00;;;;;;;7.08;100.00;100150.22;4949608;28;20232;-53
2022/11/26 09:03:44;;;;;;;0.00;0.00;;;;;;;7.05;100.00;100154.75;4951697;28;20776;-52
2022/11/26 09:06:11;;;;;;;0.00;0.00;;;;;;;7.14;100.00;100150.78;4951943;28;20725;-55
2022/11/26 09:09:11;;;;;;;0.00;0.00;;;;;;;7.13;100.00;100149.97;4951594;28;20713;-54
2022/11/26 09:11:26;;;;;;;0.00;0.00;;;;;;;7.21;100.00;100149.47;4947237;28;20253;-53
2022/11/26 09:13:55;;;;;;;0.00;0.00;;;;;;;7.27;100.00;100153.50;4942591;28;20239;-55
2022/11/26 09:16:21;;;;;;;0.00;0.00;;;;;;;7.32;100.00;100160.06;4926111;28;20274;-54
2022/11/26 09:18:48;;;;;;;0.00;0.00;;;;;;;7.40;100.00;100157.03;4957265;28;20736;-53
2022/11/26 09:21:15;;;;;;;0.00;0.00;;;;;;;7.56;100.00;100151.72;4950553;28;20733;-53
2022/11/26 09:23:41;;;;;;;0.00;0.00;;;;;;;7.58;100.00;100155.06;4954222;28;20242;-53
2022/11/26 09:26:08;;;;;;;0.00;0.00;;;;;;;7.64;100.00;100159.03;4965815;28;20241;-53
2022/11/26 09:28:35;;;;;;;0.00;0.00;;;;;;;7.82;100.00;100160.50;4951894;28;20244;-55
2022/11/26 09:31:03;;;;;;;0.00;0.00;;;;;;;7.90;100.00;100167.00;4954802;28;20231;-53
2022/11/26 09:33:30;;;;;;;0.00;0.00;;;;;;;7.88;100.00;100169.72;4952505;28;20245;-56
2022/11/26 09:36:03;;;;;;;0.10;0.10;;;;;;;7.98;100.00;100165.56;4955463;28;20231;-53
2022/11/26 09:38:30;;;;;;;0.00;0.00;;;;;;;8.05;100.00;100168.66;4950078;28;20239;-53
2022/11/26 09:41:06;;;;;;;0.00;0.00;;;;;;;8.03;100.00;100167.91;4955421;28;20661;-53
2022/11/26 09:43:42;;;;;;;0.00;0.00;;;;;;;8.07;100.00;100163.34;4950857;28;20770;-53
2022/11/26 09:46:13;;;;;;;0.00;0.00;;;;;;;8.01;100.00;100164.56;4952819;28;20292;-53
2022/11/26 09:48:42;;;;;;;0.00;0.00;;;;;;;7.97;100.00;100155.28;4944647;28;20248;-56
2022/11/26 09:51:16;;;;;;;0.00;0.00;;;;;;;8.13;100.00;100149.94;4954314;28;20734;-53
2022/11/26 09:53:47;;;;;;;0.00;0.00;;;;;;;8.12;99.08;100148.28;4947551;28;20249;-53
2022/11/26 09:56:18;;;;;;;0.00;0.00;;;;;;;8.26;98.98;100150.00;4951766;28;20284;-53
2022/11/26 09:58:51;;;;;;;0.00;0.00;;;;;;;8.21;99.32;100152.06;4953960;28;21251;-55
2022/11/26 10:01:21;;;;;;;0.00;0.00;;;;;;;8.33;100.00;100145.25;4953437;28;20235;-53
2022/11/26 10:03:48;;;;;;;0.10;0.10;;;;;;;8.35;100.00;100149.44;4947329;28;20232;-54
2022/11/26 10:06:30;;;;;;;0.00;0.00;;;;;;;8.40;98.98;100146.50;4948773;28;20242;-55
2022/11/26 10:09:18;;;;;;;0.10;0.10;;;;;;;8.54;97.97;100143.88;4950779;28;20234;-54
2022/11/26 10:11:55;;;;;;;0.00;0.00;;;;;;;8.53;97.64;100139.63;4951940;28;20254;-55
2022/11/26 10:14:36;;;;;;;0.00;0.00;;;;;;;8.65;97.58;100155.38;4950073;28;20234;-54
2022/11/26 10:17:15;;;;;;;0.00;0.00;;;;;;;8.91;98.98;100150.22;4953715;28;20238;-55
2022/11/26 10:19:51;;;;;;;0.00;0.00;;;;;;;9.06;96.58;100156.97;4956363;28;20294;-53
2022/11/26 10:22:23;;;;;;;0.00;0.00;;;;;;;9.11;94.03;100154.06;4951437;28;20302;-53
2022/11/26 10:24:50;;;;;;;0.00;0.00;;;;;;;9.27;95.85;100154.69;4972510;28;20239;-54
2022/11/26 10:27:19;;;;;;;0.00;0.00;;;;;;;9.47;94.32;100156.88;4947616;28;20232;-53
2022/11/26 10:29:50;;;;;;;0.00;0.00;;;;;;;9.55;91.75;100154.56;4969641;28;20292;-55
2022/11/26 10:32:25;;;;;;;0.00;0.00;;;;;;;9.62;90.82;100158.41;4952582;28;20227;-55
2022/11/26 10:34:54;;;;;;;0.00;0.00;;;;;;;9.48;90.06;100156.78;4953932;28;20231;-53
2022/11/26 10:37:22;;;;;;;0.00;0.00;;;;;;;9.41;91.14;100156.34;4951037;28;20635;-53
2022/11/26 10:39:52;;;;;;;0.00;0.00;;;;;;;9.29;92.43;100159.78;4955000;28;20234;-54
2022/11/26 10:42:21;;;;;;;0.00;0.00;;;;;;;9.35;91.73;100150.75;4947562;28;20313;-53
2022/11/26 10:44:49;;;;;;;0.00;0.00;;;;;;;9.26;93.13;100147.81;4953444;28;20246;-54
2022/11/26 10:47:26;;;;;;;0.00;0.00;;;;;;;9.28;93.57;100150.31;4958989;28;20226;-53
2022/11/26 10:49:54;;;;;;;0.00;0.00;;;;;;;9.37;91.48;100154.06;4955828;28;20564;-55
2022/11/26 10:52:25;;;;;;;0.00;0.00;;;;;;;9.29;90.51;100147.63;4950338;28;20237;-55
2022/11/26 10:55:18;;;;;;;0.00;0.00;;;;;;;9.16;90.62;100144.19;4950002;28;20232;-53
2022/11/26 10:57:50;;;;;;;0.00;0.00;;;;;;;9.03;89.63;100144.16;4951589;28;20832;-53
2022/11/26 11:00:30;;;;;;;0.00;0.00;;;;;;;8.93;92.18;100137.91;4949850;28;20722;-55
2022/11/26 11:02:58;;;;;;;0.00;0.00;;;;;;;9.09;92.36;100128.09;4953391;28;20242;-54
2022/11/26 11:05:25;;;;;;;0.00;0.00;;;;;;;9.17;92.99;100135.41;4952423;28;20294;-53
2022/11/26 11:07:53;;;;;;;0.00;0.00;;;;;;;9.29;91.69;100131.97;4972945;28;20235;-54
2022/11/26 11:10:23;;;;;;;0.00;0.00;;;;;;;9.30;91.17;100132.78;4951946;28;20243;-55
2022/11/26 11:13:03;;;;;;;0.00;0.00;;;;;;;9.55;90.65;100133.72;4952263;28;20231;-55
2022/11/26 11:15:32;;;;;;;0.00;0.00;;;;;;;9.68;89.32;100125.84;4950907;28;20279;-54
2022/11/26 11:18:02;;;;;;;0.00;0.00;;;;;;;9.83;89.02;100123.97;4955060;28;20243;-53
2022/11/26 11:20:32;;;;;;;0.00;0.00;;;;;;;9.95;86.08;100114.41;4953218;28;20235;-55
2022/11/26 11:23:03;;;;;;;0.00;0.00;;;;;;;9.97;85.92;100112.53;4951229;28;20237;-55
2022/11/26 11:25:31;;;;;;;0.00;0.00;;;;;;;9.86;87.00;100108.91;4952438;28;20247;-54
2022/11/26 11:28:06;;;;;;;0.00;0.00;;;;;;;9.82;87.50;100115.28;4953491;28;20247;-53
2022/11/26 11:30:36;;;;;;;0.00;0.00;;;;;;;9.56;87.42;100110.13;4950941;28;20317;-53
2022/11/26 11:33:22;;;;;;;0.00;0.00;;;;;;;9.62;86.53;100102.81;4952339;28;20225;-55
2022/11/26 11:35:58;;;;;;;0.00;0.00;;;;;;;9.28;89.35;100099.03;4950433;28;20227;-55
2022/11/26 11:38:27;;;;;;;0.00;0.00;;;;;;;9.26;87.50;100100.91;4946242;28;20286;-53
2022/11/26 11:40:54;;;;;;;0.00;0.00;;;;;;;9.14;83.84;100084.34;4953389;28;20295;-54
2022/11/26 11:43:23;;;;;;;0.00;0.00;;;;;;;9.00;84.48;100089.69;4952035;28;20219;-53